Terminal Aerodrome Forecast
Issued by NWS

Home | Current Version | Previous Version | Text Only | Print | Product List | Glossary On
Versions: 1 2 3 4 5 6 7 8 9 10 11 12 13 14 15
000
FTUS42 KMLB 061738
TAFISM
TAF
KISM 061738Z 0618/0718 03010KT P6SM VCTS FEW020 BKN035CB BKN045
      TEMPO 0618/0621 VRB15G25KT 2SM TSRA BKN020CB BKN025
     FM070000 36007KT P6SM FEW020 SCT100 SCT250
     FM070600 32005KT P6SM SCT250
     FM071400 33006KT P6SM FEW020 FEW250=

USA.gov is the U.S. government's official web portal to all federal, state and local government web resources and services.